Night Hawk — WDB7827 — position and weather

sailwx.info

Track history (hours):
 
Tides and Currents Weather Stations Pressure Air Temp Water Temp Dewpoint Dewpoint Depression Visibility Wind Speed Wind Dir Waves Ship Positions

Night Hawk

Owner: Salisbury Towing Corporation, Havre de Grace, MD. More information available from US FCC via Universal Licensing System and Coast Guard Vessel Documentation Center.

Last reported at 2017-Nov-18 10:06 UTC. Time now 2017-Nov-18 11:55 UTC.
Position N 39°34' W 076°06'.

; draft 10 m.

Type: Tug. MMSI: 366948330.

Date/timePositionNaut miles runAvg speedWind from/ knotsBaromVisibWave heightAir tempDewpointWater temp
2017-Nov-18 10:06N 39°34' W 076°06'0 0.0
2017-Nov-18 10:00N 39°34' W 076°06'0 0.0
2017-Nov-18 08:59N 39°34' W 076°06'0 0.0
2017-Nov-18 08:30N 39°34' W 076°06'0 0.0
2017-Nov-18 08:00N 39°34' W 076°06'0 0.0
2017-Nov-18 07:31N 39°34' W 076°06'0 0.0
2017-Nov-18 07:00N 39°34' W 076°06'0 0.0
2017-Nov-18 06:30N 39°34' W 076°06'0 0.0
2017-Nov-18 06:00N 39°34' W 076°06'0 0.0
2017-Nov-18 05:29N 39°34' W 076°06'0 0.0
2017-Nov-18 04:57N 39°34' W 076°06'0 0.0
2017-Nov-18 04:30N 39°34' W 076°06'0 0.0
2017-Nov-18 04:00N 39°34' W 076°06'0 0.0
2017-Nov-18 03:30N 39°34' W 076°06'0 0.0
2017-Nov-18 03:00N 39°34' W 076°06'0 0.0
2017-Nov-18 02:30N 39°34' W 076°06'0 0.0
2017-Nov-18 02:00N 39°34' W 076°06'0 0.0
2017-Nov-17 21:53N 39°34' W 076°06'0 0.3
2017-Nov-17 21:30N 39°34' W 076°06'4 7.4
2017-Nov-17 21:00N 39°31' W 076°05'4 7.3
2017-Nov-17 20:30N 39°28' W 076°03'4 7.3
2017-Nov-17 20:00N 39°24' W 076°03'4 7.9
2017-Nov-17 19:30N 39°22' W 076°08'15 7.3
2017-Nov-17 17:24N 39°12' W 076°23'4 7.4
2017-Nov-17 16:53N 39°11' W 076°28'3 8.6
2017-Nov-17 16:30N 39°13' W 076°32'4 7.5
2017-Nov-17 16:00N 39°15' W 076°35'2 4.2
2017-Nov-17 15:30N 39°14' W 076°33'1 1.4
2017-Nov-17 14:50N 39°14' W 076°34'0 0.0
2017-Nov-17 14:27N 39°14' W 076°34'0 0.0
2017-Nov-17 14:00N 39°14' W 076°34'1 1.9
2017-Nov-17 13:30N 39°14' W 076°33'2 4.6
2017-Nov-17 13:00N 39°15' W 076°35'0 0.3
2017-Nov-17 12:30N 39°16' W 076°35'0 0.0
2017-Nov-17 12:00N 39°16' W 076°35'0 0.0
2017-Nov-17 11:30N 39°16' W 076°35'0 0.1
2017-Nov-17 11:00N 39°16' W 076°35'1 2.2
2017-Nov-17 10:30N 39°15' W 076°36'0 0.1
2017-Nov-17 10:00N 39°15' W 076°36'0 0.1
2017-Nov-17 09:30N 39°15' W 076°36'1 1.8
2017-Nov-17 09:00N 39°15' W 076°35'3 6.5
2017-Nov-17 08:30N 39°13' W 076°32'4 6.9
2017-Nov-17 08:00N 39°11' W 076°28'3 5.8
2017-Nov-17 07:30N 39°12' W 076°25'20 7.1
2017-Nov-17 04:42N 39°24' W 076°04'2 7.5
2017-Nov-17 04:30N 39°25' W 076°03'3 6.6
2017-Nov-17 04:00N 39°28' W 076°03'3 6.5
2017-Nov-17 03:31N 39°31' W 076°05'2 3.5
2017-Nov-17 02:59N 39°33' W 076°04'2 4.3
2017-Nov-17 02:30N 39°34' W 076°06'2 4.1
2017-Nov-17 02:01N 39°32' W 076°05'4 7.2
2017-Nov-17 01:30N 39°29' W 076°05'4 7.4
2017-Nov-17 01:00N 39°26' W 076°02'4 8.5
2017-Nov-17 00:30N 39°23' W 076°06'5 9.4
2017-Nov-17 00:00N 39°20' W 076°11'12 8.6
2017-Nov-16 22:34N 39°12' W 076°23'1 8.3
2017-Nov-16 22:28N 39°11' W 076°24'4 8.4
2017-Nov-16 21:59N 39°07' W 076°23'8 8.7
2017-Nov-16 21:08N 38°60' W 076°23'127 7.6
2017-Nov-16 04:25N 36°52' W 076°20'3 8.0
2017-Nov-16 04:00N 36°50' W 076°17'1 1.1
2017-Nov-16 03:20N 36°50' W 076°16'0 1.3
2017-Nov-16 03:00N 36°50' W 076°16'1 1.9
2017-Nov-16 02:30N 36°50' W 076°17'0 0.0
2017-Nov-16 02:00N 36°50' W 076°17'0 0.0
2017-Nov-16 01:30N 36°50' W 076°17'0 0.0
2017-Nov-16 01:00N 36°50' W 076°17'0 0.0
2017-Nov-16 00:30N 36°50' W 076°17'0 0.0
2017-Nov-16 00:00N 36°50' W 076°17'1 2.4
2017-Nov-15 23:31N 36°50' W 076°16'0 0.2
2017-Nov-15 23:00N 36°50' W 076°16'3 6.5
2017-Nov-15 22:30N 36°52' W 076°19'118 6.3
2017-Nov-15 03:43N 38°50' W 076°27'1 4.3
2017-Nov-15 03:30N 38°51' W 076°26'9 6.4
2017-Nov-15 02:06N 38°60' W 076°23'2 8.3
2017-Nov-15 01:53N 39°01' W 076°22'9 7.6
2017-Nov-15 00:38N 39°10' W 076°18'2 7.7
2017-Nov-15 00:24N 39°11' W 076°16'3 6.9
2017-Nov-14 23:54N 39°15' W 076°14'3 6.8
2017-Nov-14 23:30N 39°17' W 076°14'3 6.3
2017-Nov-14 23:00N 39°20' W 076°12'5 6.0
2017-Nov-14 22:14N 39°23' W 076°07'1 5.9
2017-Nov-14 22:00N 39°23' W 076°05'3 5.5
2017-Nov-14 21:30N 39°25' W 076°03'3 5.2
2017-Nov-14 21:00N 39°28' W 076°03'1 1.9
2017-Nov-14 20:30N 39°29' W 076°04'2 5.0
2017-Nov-14 20:00N 39°26' W 076°02'4 8.0
2017-Nov-14 19:30N 39°23' W 076°05'5 9.3
2017-Nov-14 19:01N 39°21' W 076°11'3 5.7
2017-Nov-14 18:30N 39°18' W 076°13'18 8.3
2017-Nov-14 16:18N 39°02' W 076°22'4 8.4
2017-Nov-14 15:49N 38°58' W 076°24'6 8.2
2017-Nov-14 15:07N 38°52' W 076°25'47 5.8
2017-Nov-14 07:02N 38°15' W 075°49'0 8.3
2017-Nov-14 07:00N 38°15' W 075°49'80 2.8
2017-Nov-13 02:00N 39°34' W 076°06'0 0.0
2017-Nov-13 01:26N 39°34' W 076°06'0 0.0
2017-Nov-13 00:39N 39°34' W 076°06'0 0.4
2017-Nov-13 00:30N 39°34' W 076°06'2 4.7
2017-Nov-13 00:00N 39°32' W 076°05'3 6.7
2017-Nov-12 23:31N 39°29' W 076°05'3 6.6
2017-Nov-12 23:00N 39°26' W 076°02'4 7.3
2017-Nov-12 22:30N 39°23' W 076°05'4 8.5
2017-Nov-12 22:00N 39°21' W 076°10'4 7.5
2017-Nov-12 21:29N 39°18' W 076°13'4 7.7
2017-Nov-12 21:00N 39°15' W 076°14'19 8.6
2017-Nov-12 18:49N 38°57' W 076°24'125 8.0
2017-Nov-12 03:16N 36°52' W 076°20'1 3.8
2017-Nov-12 03:00N 36°51' W 076°20'1 1.1
2017-Nov-12 02:30N 36°52' W 076°19'3 5.4
2017-Nov-12 02:00N 36°49' W 076°17'0 0.0
2017-Nov-12 01:30N 36°49' W 076°17'0 0.0
2017-Nov-12 01:00N 36°49' W 076°17'1 1.7
2017-Nov-12 00:30N 36°50' W 076°18'0 0.8
2017-Nov-12 00:00N 36°50' W 076°17'0 0.0
2017-Nov-11 23:30N 36°50' W 076°17'0 0.0
2017-Nov-11 23:00N 36°50' W 076°17'1 1.3
2017-Nov-11 22:30N 36°50' W 076°17'0 0.8
2017-Nov-11 22:00N 36°50' W 076°16'3 5.3
2017-Nov-11 21:30N 36°52' W 076°19'4 6.5
2017-Nov-11 20:57N 36°55' W 076°20'115 6.5
2017-Nov-11 03:17N 38°50' W 076°27'2 6.8
2017-Nov-11 03:00N 38°52' W 076°26'6 6.6
2017-Nov-11 02:07N 38°58' W 076°24'2 7.3
2017-Nov-11 01:50N 38°60' W 076°23'2 7.1
2017-Nov-11 01:30N 39°02' W 076°22'4 7.0
2017-Nov-11 00:55N 39°06' W 076°20'22 7.2
2017-Nov-10 21:49N 39°24' W 076°04'2 6.3
2017-Nov-10 21:30N 39°26' W 076°02'1 2.4
2017-Nov-10 21:00N 39°27' W 076°02'3 6.2
2017-Nov-10 20:30N 39°29' W 076°05'3 6.4
2017-Nov-10 20:00N 39°32' W 076°05'2 4.6
2017-Nov-10 19:31N 39°34' W 076°06'0 0.2
2017-Nov-10 18:59N 39°34' W 076°06'0 0.0
2017-Nov-10 18:30N 39°34' W 076°06'0 0.0
2017-Nov-10 17:58N 39°34' W 076°06'0 0.0
2017-Nov-10 17:27N 39°34' W 076°06'0 0.0
2017-Nov-10 17:00N 39°34' W 076°06'0 0.0
2017-Nov-10 16:30N 39°34' W 076°06'0 0.4
2017-Nov-10 16:00N 39°34' W 076°06'0 0.0
2017-Nov-10 15:30N 39°34' W 076°06'0 0.0
2017-Nov-10 15:00N 39°34' W 076°06'0 0.7
2017-Nov-10 14:30N 39°34' W 076°06'2 3.7
2017-Nov-10 14:01N 39°33' W 076°05'1 2.8
2017-Nov-10 13:30N 39°31' W 076°05'3 6.4
2017-Nov-10 13:00N 39°28' W 076°03'3 6.6
2017-Nov-10 12:30N 39°25' W 076°03'4 7.1
2017-Nov-10 12:00N 39°23' W 076°06'3 7.0
2017-Nov-10 11:30N 39°21' W 076°10'3 6.7
2017-Nov-10 11:00N 39°18' W 076°13'3 6.6
2017-Nov-10 10:31N 39°16' W 076°16'4 7.5
2017-Nov-10 10:01N 39°14' W 076°20'4 7.5
2017-Nov-10 09:30N 39°12' W 076°24'4 7.9
2017-Nov-10 09:00N 39°12' W 076°29'4 8.6
2017-Nov-10 08:30N 39°14' W 076°33'2 4.4
2017-Nov-10 08:00N 39°15' W 076°36'0 0.2
2017-Nov-10 07:27N 39°15' W 076°36'0 0.0
2017-Nov-10 06:57N 39°15' W 076°36'0 0.0
2017-Nov-10 06:24N 39°15' W 076°36'1 1.8
2017-Nov-10 06:01N 39°15' W 076°36'3 6.4
2017-Nov-10 05:30N 39°14' W 076°32'5 6.9
2017-Nov-10 04:45N 39°11' W 076°26'12 5.9
2017-Nov-10 02:43N 39°18' W 076°13'1 6.1
2017-Nov-10 02:29N 39°19' W 076°13'4 6.2
2017-Nov-10 01:56N 39°21' W 076°09'3 6.7
2017-Nov-10 01:30N 39°23' W 076°06'3 6.7
2017-Nov-10 01:01N 39°25' W 076°03'3 6.2
2017-Nov-10 00:30N 39°28' W 076°03'3 6.4
2017-Nov-10 00:01N 39°31' W 076°05'3 6.4
2017-Nov-09 23:30N 39°34' W 076°06'1 1.2
2017-Nov-09 23:00N 39°34' W 076°06'0 0.0
2017-Nov-09 22:31N 39°34' W 076°06'0 0.8
2017-Nov-09 22:00N 39°34' W 076°06'3 6.8
2017-Nov-09 21:30N 39°31' W 076°05'3 6.7
2017-Nov-09 21:00N 39°28' W 076°03'4 7.1
2017-Nov-09 20:30N 39°24' W 076°03'4 7.8
2017-Nov-09 20:00N 39°22' W 076°08'4 8.0
2017-Nov-09 19:30N 39°20' W 076°12'7 8.1
2017-Nov-09 18:38N 39°15' W 076°18'3 8.5
2017-Nov-09 18:16N 39°13' W 076°21'2 8.6
2017-Nov-09 18:00N 39°12' W 076°24'4 7.9
2017-Nov-09 17:30N 39°12' W 076°29'4 8.6
2017-Nov-09 17:00N 39°14' W 076°33'2 4.9
2017-Nov-09 16:30N 39°15' W 076°36'0 0.1
2017-Nov-09 16:00N 39°15' W 076°36'1 2.1
2017-Nov-09 15:30N 39°15' W 076°35'4 7.2
2017-Nov-09 15:00N 39°13' W 076°32'4 7.3
2017-Nov-09 14:30N 39°11' W 076°28'4 7.5
2017-Nov-09 14:00N 39°08' W 076°24'4 7.6
2017-Nov-09 13:30N 39°05' W 076°24'4 7.8
2017-Nov-09 13:00N 39°01' W 076°23'4 7.5
2017-Nov-09 12:30N 38°57' W 076°24'  
Track history (hours):
 
Tides and Currents Weather Stations Pressure Air Temp Water Temp Dewpoint Dewpoint Depression Visibility Wind Speed Wind Dir Waves Ship Positions

Night Hawk

Owner: Salisbury Towing Corporation, Havre de Grace, MD. More information available from US FCC via Universal Licensing System and Coast Guard Vessel Documentation Center.

Last reported at 2017-Nov-18 10:06 UTC. Time now 2017-Nov-18 11:55 UTC.
Position N 39°34' W 076°06'.

; draft 10 m.

Type: Tug. MMSI: 366948330.

Date/timePositionNaut miles runAvg speedWind from/ knotsBaromVisibWave heightAir tempDewpointWater temp
2017-Nov-18 10:06N 39°34' W 076°06'0 0.0
2017-Nov-18 10:00N 39°34' W 076°06'0 0.0
2017-Nov-18 08:59N 39°34' W 076°06'0 0.0
2017-Nov-18 08:30N 39°34' W 076°06'0 0.0
2017-Nov-18 08:00N 39°34' W 076°06'0 0.0
2017-Nov-18 07:31N 39°34' W 076°06'0 0.0
2017-Nov-18 07:00N 39°34' W 076°06'0 0.0
2017-Nov-18 06:30N 39°34' W 076°06'0 0.0
2017-Nov-18 06:00N 39°34' W 076°06'0 0.0
2017-Nov-18 05:29N 39°34' W 076°06'0 0.0
2017-Nov-18 04:57N 39°34' W 076°06'0 0.0
2017-Nov-18 04:30N 39°34' W 076°06'0 0.0
2017-Nov-18 04:00N 39°34' W 076°06'0 0.0
2017-Nov-18 03:30N 39°34' W 076°06'0 0.0
2017-Nov-18 03:00N 39°34' W 076°06'0 0.0
2017-Nov-18 02:30N 39°34' W 076°06'0 0.0
2017-Nov-18 02:00N 39°34' W 076°06'0 0.0
2017-Nov-17 21:53N 39°34' W 076°06'0 0.3
2017-Nov-17 21:30N 39°34' W 076°06'4 7.4
2017-Nov-17 21:00N 39°31' W 076°05'4 7.3
2017-Nov-17 20:30N 39°28' W 076°03'4 7.3
2017-Nov-17 20:00N 39°24' W 076°03'4 7.9
2017-Nov-17 19:30N 39°22' W 076°08'15 7.3
2017-Nov-17 17:24N 39°12' W 076°23'4 7.4
2017-Nov-17 16:53N 39°11' W 076°28'3 8.6
2017-Nov-17 16:30N 39°13' W 076°32'4 7.5
2017-Nov-17 16:00N 39°15' W 076°35'2 4.2
2017-Nov-17 15:30N 39°14' W 076°33'1 1.4
2017-Nov-17 14:50N 39°14' W 076°34'0 0.0
2017-Nov-17 14:27N 39°14' W 076°34'0 0.0
2017-Nov-17 14:00N 39°14' W 076°34'1 1.9
2017-Nov-17 13:30N 39°14' W 076°33'2 4.6
2017-Nov-17 13:00N 39°15' W 076°35'0 0.3
2017-Nov-17 12:30N 39°16' W 076°35'0 0.0
2017-Nov-17 12:00N 39°16' W 076°35'0 0.0
2017-Nov-17 11:30N 39°16' W 076°35'0 0.1
2017-Nov-17 11:00N 39°16' W 076°35'1 2.2
2017-Nov-17 10:30N 39°15' W 076°36'0 0.1
2017-Nov-17 10:00N 39°15' W 076°36'0 0.1
2017-Nov-17 09:30N 39°15' W 076°36'1 1.8
2017-Nov-17 09:00N 39°15' W 076°35'3 6.5
2017-Nov-17 08:30N 39°13' W 076°32'4 6.9
2017-Nov-17 08:00N 39°11' W 076°28'3 5.8
2017-Nov-17 07:30N 39°12' W 076°25'20 7.1
2017-Nov-17 04:42N 39°24' W 076°04'2 7.5
2017-Nov-17 04:30N 39°25' W 076°03'3 6.6
2017-Nov-17 04:00N 39°28' W 076°03'3 6.5
2017-Nov-17 03:31N 39°31' W 076°05'2 3.5
2017-Nov-17 02:59N 39°33' W 076°04'2 4.3
2017-Nov-17 02:30N 39°34' W 076°06'2 4.1
2017-Nov-17 02:01N 39°32' W 076°05'4 7.2
2017-Nov-17 01:30N 39°29' W 076°05'4 7.4
2017-Nov-17 01:00N 39°26' W 076°02'4 8.5
2017-Nov-17 00:30N 39°23' W 076°06'5 9.4
2017-Nov-17 00:00N 39°20' W 076°11'12 8.6
2017-Nov-16 22:34N 39°12' W 076°23'1 8.3
2017-Nov-16 22:28N 39°11' W 076°24'4 8.4
2017-Nov-16 21:59N 39°07' W 076°23'8 8.7
2017-Nov-16 21:08N 38°60' W 076°23'127 7.6
2017-Nov-16 04:25N 36°52' W 076°20'3 8.0
2017-Nov-16 04:00N 36°50' W 076°17'1 1.1
2017-Nov-16 03:20N 36°50' W 076°16'0 1.3
2017-Nov-16 03:00N 36°50' W 076°16'1 1.9
2017-Nov-16 02:30N 36°50' W 076°17'0 0.0
2017-Nov-16 02:00N 36°50' W 076°17'0 0.0
2017-Nov-16 01:30N 36°50' W 076°17'0 0.0
2017-Nov-16 01:00N 36°50' W 076°17'0 0.0
2017-Nov-16 00:30N 36°50' W 076°17'0 0.0
2017-Nov-16 00:00N 36°50' W 076°17'1 2.4
2017-Nov-15 23:31N 36°50' W 076°16'0 0.2
2017-Nov-15 23:00N 36°50' W 076°16'3 6.5
2017-Nov-15 22:30N 36°52' W 076°19'118 6.3
2017-Nov-15 03:43N 38°50' W 076°27'1 4.3
2017-Nov-15 03:30N 38°51' W 076°26'9 6.4
2017-Nov-15 02:06N 38°60' W 076°23'2 8.3
2017-Nov-15 01:53N 39°01' W 076°22'9 7.6
2017-Nov-15 00:38N 39°10' W 076°18'2 7.7
2017-Nov-15 00:24N 39°11' W 076°16'3 6.9
2017-Nov-14 23:54N 39°15' W 076°14'3 6.8
2017-Nov-14 23:30N 39°17' W 076°14'3 6.3
2017-Nov-14 23:00N 39°20' W 076°12'5 6.0
2017-Nov-14 22:14N 39°23' W 076°07'1 5.9
2017-Nov-14 22:00N 39°23' W 076°05'3 5.5
2017-Nov-14 21:30N 39°25' W 076°03'3 5.2
2017-Nov-14 21:00N 39°28' W 076°03'1 1.9
2017-Nov-14 20:30N 39°29' W 076°04'2 5.0
2017-Nov-14 20:00N 39°26' W 076°02'4 8.0
2017-Nov-14 19:30N 39°23' W 076°05'5 9.3
2017-Nov-14 19:01N 39°21' W 076°11'3 5.7
2017-Nov-14 18:30N 39°18' W 076°13'18 8.3
2017-Nov-14 16:18N 39°02' W 076°22'4 8.4
2017-Nov-14 15:49N 38°58' W 076°24'6 8.2
2017-Nov-14 15:07N 38°52' W 076°25'47 5.8
2017-Nov-14 07:02N 38°15' W 075°49'0 8.3
2017-Nov-14 07:00N 38°15' W 075°49'80 2.8
2017-Nov-13 02:00N 39°34' W 076°06'0 0.0
2017-Nov-13 01:26N 39°34' W 076°06'0 0.0
2017-Nov-13 00:39N 39°34' W 076°06'0 0.4
2017-Nov-13 00:30N 39°34' W 076°06'2 4.7
2017-Nov-13 00:00N 39°32' W 076°05'3 6.7
2017-Nov-12 23:31N 39°29' W 076°05'3 6.6
2017-Nov-12 23:00N 39°26' W 076°02'4 7.3
2017-Nov-12 22:30N 39°23' W 076°05'4 8.5
2017-Nov-12 22:00N 39°21' W 076°10'4 7.5
2017-Nov-12 21:29N 39°18' W 076°13'4 7.7
2017-Nov-12 21:00N 39°15' W 076°14'19 8.6
2017-Nov-12 18:49N 38°57' W 076°24'125 8.0
2017-Nov-12 03:16N 36°52' W 076°20'1 3.8
2017-Nov-12 03:00N 36°51' W 076°20'1 1.1
2017-Nov-12 02:30N 36°52' W 076°19'3 5.4
2017-Nov-12 02:00N 36°49' W 076°17'0 0.0
2017-Nov-12 01:30N 36°49' W 076°17'0 0.0
2017-Nov-12 01:00N 36°49' W 076°17'1 1.7
2017-Nov-12 00:30N 36°50' W 076°18'0 0.8
2017-Nov-12 00:00N 36°50' W 076°17'0 0.0
2017-Nov-11 23:30N 36°50' W 076°17'0 0.0
2017-Nov-11 23:00N 36°50' W 076°17'1 1.3
2017-Nov-11 22:30N 36°50' W 076°17'0 0.8
2017-Nov-11 22:00N 36°50' W 076°16'3 5.3
2017-Nov-11 21:30N 36°52' W 076°19'4 6.5
2017-Nov-11 20:57N 36°55' W 076°20'115 6.5
2017-Nov-11 03:17N 38°50' W 076°27'2 6.8
2017-Nov-11 03:00N 38°52' W 076°26'6 6.6
2017-Nov-11 02:07N 38°58' W 076°24'2 7.3
2017-Nov-11 01:50N 38°60' W 076°23'2 7.1
2017-Nov-11 01:30N 39°02' W 076°22'4 7.0
2017-Nov-11 00:55N 39°06' W 076°20'22 7.2
2017-Nov-10 21:49N 39°24' W 076°04'2 6.3
2017-Nov-10 21:30N 39°26' W 076°02'1 2.4
2017-Nov-10 21:00N 39°27' W 076°02'3 6.2
2017-Nov-10 20:30N 39°29' W 076°05'3 6.4
2017-Nov-10 20:00N 39°32' W 076°05'2 4.6
2017-Nov-10 19:31N 39°34' W 076°06'0 0.2
2017-Nov-10 18:59N 39°34' W 076°06'0 0.0
2017-Nov-10 18:30N 39°34' W 076°06'0 0.0
2017-Nov-10 17:58N 39°34' W 076°06'0 0.0
2017-Nov-10 17:27N 39°34' W 076°06'0 0.0
2017-Nov-10 17:00N 39°34' W 076°06'0 0.0
2017-Nov-10 16:30N 39°34' W 076°06'0 0.4
2017-Nov-10 16:00N 39°34' W 076°06'0 0.0
2017-Nov-10 15:30N 39°34' W 076°06'0 0.0
2017-Nov-10 15:00N 39°34' W 076°06'0 0.7
2017-Nov-10 14:30N 39°34' W 076°06'2 3.7
2017-Nov-10 14:01N 39°33' W 076°05'1 2.8
2017-Nov-10 13:30N 39°31' W 076°05'3 6.4
2017-Nov-10 13:00N 39°28' W 076°03'3 6.6
2017-Nov-10 12:30N 39°25' W 076°03'4 7.1
2017-Nov-10 12:00N 39°23' W 076°06'3 7.0
2017-Nov-10 11:30N 39°21' W 076°10'3 6.7
2017-Nov-10 11:00N 39°18' W 076°13'3 6.6
2017-Nov-10 10:31N 39°16' W 076°16'4 7.5
2017-Nov-10 10:01N 39°14' W 076°20'4 7.5
2017-Nov-10 09:30N 39°12' W 076°24'4 7.9
2017-Nov-10 09:00N 39°12' W 076°29'4 8.6
2017-Nov-10 08:30N 39°14' W 076°33'2 4.4
2017-Nov-10 08:00N 39°15' W 076°36'0 0.2
2017-Nov-10 07:27N 39°15' W 076°36'0 0.0
2017-Nov-10 06:57N 39°15' W 076°36'0 0.0
2017-Nov-10 06:24N 39°15' W 076°36'1 1.8
2017-Nov-10 06:01N 39°15' W 076°36'3 6.4
2017-Nov-10 05:30N 39°14' W 076°32'5 6.9
2017-Nov-10 04:45N 39°11' W 076°26'12 5.9
2017-Nov-10 02:43N 39°18' W 076°13'1 6.1
2017-Nov-10 02:29N 39°19' W 076°13'4 6.2
2017-Nov-10 01:56N 39°21' W 076°09'3 6.7
2017-Nov-10 01:30N 39°23' W 076°06'3 6.7
2017-Nov-10 01:01N 39°25' W 076°03'3 6.2
2017-Nov-10 00:30N 39°28' W 076°03'3 6.4
2017-Nov-10 00:01N 39°31' W 076°05'3 6.4
2017-Nov-09 23:30N 39°34' W 076°06'1 1.2
2017-Nov-09 23:00N 39°34' W 076°06'0 0.0
2017-Nov-09 22:31N 39°34' W 076°06'0 0.8
2017-Nov-09 22:00N 39°34' W 076°06'3 6.8
2017-Nov-09 21:30N 39°31' W 076°05'3 6.7
2017-Nov-09 21:00N 39°28' W 076°03'4 7.1
2017-Nov-09 20:30N 39°24' W 076°03'4 7.8
2017-Nov-09 20:00N 39°22' W 076°08'4 8.0
2017-Nov-09 19:30N 39°20' W 076°12'7 8.1
2017-Nov-09 18:38N 39°15' W 076°18'3 8.5
2017-Nov-09 18:16N 39°13' W 076°21'2 8.6
2017-Nov-09 18:00N 39°12' W 076°24'4 7.9
2017-Nov-09 17:30N 39°12' W 076°29'4 8.6
2017-Nov-09 17:00N 39°14' W 076°33'2 4.9
2017-Nov-09 16:30N 39°15' W 076°36'0 0.1
2017-Nov-09 16:00N 39°15' W 076°36'1 2.1
2017-Nov-09 15:30N 39°15' W 076°35'4 7.2
2017-Nov-09 15:00N 39°13' W 076°32'4 7.3
2017-Nov-09 14:30N 39°11' W 076°28'4 7.5
2017-Nov-09 14:00N 39°08' W 076°24'4 7.6
2017-Nov-09 13:30N 39°05' W 076°24'4 7.8
2017-Nov-09 13:00N 39°01' W 076°23'4 7.5
2017-Nov-09 12:30N 38°57' W 076°24'  

Dump ship's entire track history